Search for airport 
image banner adimage banner adimage banner ad
image banner ad

45PA - Meadville Medical Center

Located in Meadville, United States

ICAO - 45PA, IATA -

Data provided by Airmate  

General information

Coordinates: N41°38'28" W80°8'45"
Elevation is 1125 feet MSL.
Magnetic variation is -09° East
View others Airports in Pennsylvania

Operational data

Special qualification required
Current time UTC:
Current local time:
Weather at : KGKJ - Port Meadville ( 6 km )
METAR: KGKJ 091253Z AUTO VRB03KT 10SM OVC090 05/02 A3001 RMK AO2 SLP171 T00500017
View NOTAMs / SUP AIP / TFR affecting this airport [VIEW]
Communications frequencies: [VIEW]

Runways:

Airport contact information

Address: Meadville United States

Satellite view of 45PA